EDT,Max TemperatureF,Mean TemperatureF,Min TemperatureF,Max Dew PointF,MeanDew PointF,Min DewpointF,Max Humidity, Mean Humidity, Min Humidity, Max Sea Level PressureIn, Mean Sea Level PressureIn, Min Sea Level PressureIn, Max VisibilityMiles, Mean VisibilityMiles, Min VisibilityMiles, Max Wind SpeedMPH, Mean Wind SpeedMPH, Max Gust SpeedMPH,PrecipitationIn, CloudCover, Events, WindDirDegrees
2011-10-1,53,42,30,36,32,28,93,69,38,30.35,30.29,30.20,10,10,10,12,6,17,0.00,2,,4
2011-10-2,64,46,28,45,35,27,100,76,40,30.27,30.21,30.13,10,10,7,9,2,,0.00,0,,287
2011-10-3,66,55,44,52,45,43,100,78,43,30.27,30.23,30.18,10,8,0,10,5,,0.00,2,Fog,352
2011-10-4,71,54,37,55,46,36,100,77,49,30.27,30.23,30.18,10,10,10,14,3,18,0.00,0,,195
2011-10-5,66,56,46,54,49,43,100,79,45,30.30,30.25,30.20,10,9,1,17,6,22,0.00,0,,128
2011-10-6,71,58,44,54,47,39,93,72,50,30.31,30.28,30.25,10,10,10,9,6,,0.00,0,,157
2011-10-7,73,62,51,57,53,48,100,77,53,30.30,30.26,30.21,10,10,10,15,7,22,0.00,0,,175
2011-10-8,75,68,60,57,55,54,82,65,50,30.23,30.20,30.16,10,10,10,24,15,32,0.00,0,,191
2011-10-9,77,67,57,59,56,54,94,71,47,30.30,30.27,30.22,10,10,3,16,11,23,0.00,0,,205
2011-10-10,75,60,46,55,53,46,100,75,47,30.30,30.23,30.11,10,8,0,13,5,16,0.00,0,Fog,146
2011-10-11,73,64,55,55,54,52,94,73,50,30.11,30.05,29.97,10,10,10,12,6,,0.00,0,,165
2011-10-12,73,60,48,55,51,46,94,72,41,29.97,29.90,29.81,10,10,10,13,3,,0.00,1,,134
2011-10-13,60,54,48,55,52,48,100,89,77,29.79,29.64,29.48,10,8,0,8,4,,0.00,6,Fog-Rain,117
2011-10-14,55,52,48,54,51,46,100,94,88,29.40,29.27,29.22,10,5,1,21,8,28,0.00,8,Rain,273
2011-10-15,48,45,42,43,40,36,100,86,62,29.56,29.34,29.20,10,8,2,26,19,40,0.00,8,Rain,279
2011-10-16,55,48,41,39,36,34,81,70,47,29.59,29.54,29.47,10,10,2,31,13,43,0.00,5,Rain,247
2011-10-17,44,42,39,41,36,28,93,80,53,29.58,29.48,29.44,10,8,4,22,15,31,0.00,8,Rain,253
2011-10-18,46,42,37,43,38,36,100,86,71,29.92,29.77,29.66,10,9,3,13,7,20,0.00,6,Rain,292
2011-10-19,48,42,37,39,37,34,100,83,58,29.99,29.95,29.89,10,10,10,18,6,26,0.00,6,,14
2011-10-20,44,42,39,39,38,36,100,87,76,29.80,29.60,29.51,10,7,2,20,15,31,0.00,8,Rain,355
2011-10-21,48,39,28,37,35,27,100,79,58,30.00,29.90,29.73,10,10,10,13,8,21,0.00,5,,308
2011-10-22,57,42,26,45,38,27,100,77,41,30.03,29.98,29.96,10,8,0,10,5,,0.00,4,Fog,220
2011-10-23,51,40,30,46,38,28,100,89,71,30.01,29.92,29.81,10,6,0,12,3,,0.00,5,Fog-Rain-Snow,187
2011-10-24,46,40,35,46,39,32,100,85,66,30.04,29.83,29.66,10,10,4,18,11,28,0.00,7,Rain,268
2011-10-25,44,37,30,37,33,28,100,86,66,30.11,30.08,30.00,10,10,10,7,3,,0.00,1,,252
2011-10-26,46,42,39,37,35,32,93,79,61,30.00,29.98,29.95,10,10,10,12,3,16,0.00,7,,347
2011-10-27,44,36,28,36,33,27,100,82,57,30.09,29.98,29.94,10,10,7,13,5,20,0.00,5,Rain,305
2011-10-28,46,34,23,37,30,21,93,86,71,30.13,30.09,30.04,10,10,2,13,4,16,0.00,4,Rain,193
2011-10-29,46,38,30,39,35,30,100,90,76,30.06,30.02,29.99,10,9,2,7,3,,0.00,6,Rain,133
2011-10-30,48,38,28,41,34,27,100,87,62,30.11,30.09,30.04,10,7,0,10,4,,0.00,5,Fog,170
2011-10-31,48,44,39,46,41,37,100,90,76,30.04,29.98,29.95,10,8,3,13,7,17,0.00,7,Rain,139